sensor_id;sensor_type;location;lat;lon;timestamp;P1;durP1;ratioP1;P2;durP2;ratioP2
8536;SDS011;4306;50.210;10.628;2023-03-01T00:00:53;15.90;;;9.30;;
8536;SDS011;4306;50.210;10.628;2023-03-01T00:03:20;16.17;;;9.33;;
8536;SDS011;4306;50.210;10.628;2023-03-01T00:05:48;17.07;;;9.50;;
8536;SDS011;4306;50.210;10.628;2023-03-01T00:08:16;14.20;;;8.63;;
8536;SDS011;4306;50.210;10.628;2023-03-01T00:10:43;15.77;;;9.53;;
8536;SDS011;4306;50.210;10.628;2023-03-01T00:13:09;16.77;;;9.40;;
8536;SDS011;4306;50.210;10.628;2023-03-01T00:15:38;15.30;;;9.93;;
8536;SDS011;4306;50.210;10.628;2023-03-01T00:18:06;15.97;;;9.23;;
8536;SDS011;4306;50.210;10.628;2023-03-01T00:20:33;17.13;;;9.30;;
8536;SDS011;4306;50.210;10.628;2023-03-01T00:23:00;18.17;;;9.97;;
8536;SDS011;4306;50.210;10.628;2023-03-01T00:25:28;17.23;;;9.23;;
8536;SDS011;4306;50.210;10.628;2023-03-01T00:27:55;17.73;;;9.93;;
8536;SDS011;4306;50.210;10.628;2023-03-01T00:30:22;17.43;;;9.50;;
8536;SDS011;4306;50.210;10.628;2023-03-01T00:32:49;15.63;;;9.13;;
8536;SDS011;4306;50.210;10.628;2023-03-01T00:35:16;16.63;;;9.67;;
8536;SDS011;4306;50.210;10.628;2023-03-01T00:37:42;16.40;;;8.70;;
8536;SDS011;4306;50.210;10.628;2023-03-01T00:40:10;15.37;;;8.93;;
8536;SDS011;4306;50.210;10.628;2023-03-01T00:42:38;18.70;;;9.37;;
8536;SDS011;4306;50.210;10.628;2023-03-01T00:45:06;20.00;;;9.40;;
8536;SDS011;4306;50.210;10.628;2023-03-01T00:47:34;18.10;;;8.87;;
8536;SDS011;4306;50.210;10.628;2023-03-01T00:50:00;17.50;;;9.40;;
8536;SDS011;4306;50.210;10.628;2023-03-01T00:52:27;18.50;;;9.10;;
8536;SDS011;4306;50.210;10.628;2023-03-01T00:54:54;15.60;;;8.93;;
8536;SDS011;4306;50.210;10.628;2023-03-01T00:57:22;17.70;;;9.43;;
8536;SDS011;4306;50.210;10.628;2023-03-01T00:59:51;15.47;;;9.27;;
8536;SDS011;4306;50.210;10.628;2023-03-01T01:02:18;14.10;;;8.77;;
8536;SDS011;4306;50.210;10.628;2023-03-01T01:04:45;17.83;;;8.83;;
8536;SDS011;4306;50.210;10.628;2023-03-01T01:07:12;16.63;;;9.80;;
8536;SDS011;4306;50.210;10.628;2023-03-01T01:09:39;16.83;;;9.13;;
8536;SDS011;4306;50.210;10.628;2023-03-01T01:12:06;14.97;;;8.93;;
8536;SDS011;4306;50.210;10.628;2023-03-01T01:14:34;17.10;;;9.93;;
8536;SDS011;4306;50.210;10.628;2023-03-01T01:17:03;18.10;;;9.10;;
8536;SDS011;4306;50.210;10.628;2023-03-01T01:19:30;17.37;;;9.50;;
8536;SDS011;4306;50.210;10.628;2023-03-01T01:21:57;16.97;;;9.27;;
8536;SDS011;4306;50.210;10.628;2023-03-01T01:24:24;17.27;;;9.17;;
8536;SDS011;4306;50.210;10.628;2023-03-01T01:26:51;15.53;;;8.70;;
8536;SDS011;4306;50.210;10.628;2023-03-01T01:29:17;13.63;;;8.43;;
8536;SDS011;4306;50.210;10.628;2023-03-01T01:31:44;15.67;;;8.90;;
8536;SDS011;4306;50.210;10.628;2023-03-01T01:34:14;18.37;;;9.10;;
8536;SDS011;4306;50.210;10.628;2023-03-01T01:36:42;15.73;;;9.63;;
8536;SDS011;4306;50.210;10.628;2023-03-01T01:39:09;17.63;;;9.33;;
8536;SDS011;4306;50.210;10.628;2023-03-01T01:41:38;18.73;;;9.40;;
8536;SDS011;4306;50.210;10.628;2023-03-01T01:44:16;15.07;;;8.70;;
8536;SDS011;4306;50.210;10.628;2023-03-01T01:46:44;22.73;;;9.63;;
8536;SDS011;4306;50.210;10.628;2023-03-01T01:49:19;18.93;;;9.07;;
8536;SDS011;4306;50.210;10.628;2023-03-01T01:51:52;16.03;;;9.13;;
8536;SDS011;4306;50.210;10.628;2023-03-01T01:54:24;16.50;;;9.27;;
8536;SDS011;4306;50.210;10.628;2023-03-01T01:56:56;14.50;;;8.73;;
8536;SDS011;4306;50.210;10.628;2023-03-01T01:59:27;15.50;;;8.90;;
8536;SDS011;4306;50.210;10.628;2023-03-01T02:01:56;15.30;;;9.37;;
8536;SDS011;4306;50.210;10.628;2023-03-01T02:04:27;19.33;;;9.80;;
8536;SDS011;4306;50.210;10.628;2023-03-01T02:06:56;17.50;;;8.90;;
8536;SDS011;4306;50.210;10.628;2023-03-01T02:09:27;15.67;;;9.13;;
8536;SDS011;4306;50.210;10.628;2023-03-01T02:11:54;18.33;;;9.73;;
8536;SDS011;4306;50.210;10.628;2023-03-01T02:14:21;17.60;;;10.20;;
8536;SDS011;4306;50.210;10.628;2023-03-01T02:16:48;16.97;;;9.30;;
8536;SDS011;4306;50.210;10.628;2023-03-01T02:19:22;15.37;;;9.37;;
8536;SDS011;4306;50.210;10.628;2023-03-01T02:21:59;17.03;;;9.03;;
8536;SDS011;4306;50.210;10.628;2023-03-01T02:24:34;19.00;;;9.27;;
8536;SDS011;4306;50.210;10.628;2023-03-01T02:27:10;18.03;;;9.27;;
8536;SDS011;4306;50.210;10.628;2023-03-01T02:29:39;15.37;;;9.10;;
8536;SDS011;4306;50.210;10.628;2023-03-01T02:32:09;15.53;;;8.93;;
8536;SDS011;4306;50.210;10.628;2023-03-01T02:34:36;18.23;;;9.90;;
8536;SDS011;4306;50.210;10.628;2023-03-01T02:37:05;16.40;;;8.37;;
8536;SDS011;4306;50.210;10.628;2023-03-01T02:39:38;15.73;;;9.17;;
8536;SDS011;4306;50.210;10.628;2023-03-01T02:42:09;14.87;;;9.10;;
8536;SDS011;4306;50.210;10.628;2023-03-01T02:44:40;16.90;;;9.03;;
8536;SDS011;4306;50.210;10.628;2023-03-01T02:47:07;17.50;;;9.53;;
8536;SDS011;4306;50.210;10.628;2023-03-01T02:49:34;15.00;;;8.73;;
8536;SDS011;4306;50.210;10.628;2023-03-01T02:54:50;18.23;;;9.53;;
8536;SDS011;4306;50.210;10.628;2023-03-01T02:57:23;18.97;;;9.50;;
8536;SDS011;4306;50.210;10.628;2023-03-01T02:59:53;15.70;;;9.03;;
8536;SDS011;4306;50.210;10.628;2023-03-01T03:02:22;16.43;;;9.00;;
8536;SDS011;4306;50.210;10.628;2023-03-01T03:05:01;16.77;;;8.90;;
8536;SDS011;4306;50.210;10.628;2023-03-01T03:07:33;13.53;;;8.13;;
8536;SDS011;4306;50.210;10.628;2023-03-01T03:10:00;16.37;;;8.80;;
8536;SDS011;4306;50.210;10.628;2023-03-01T03:12:28;16.03;;;9.17;;
8536;SDS011;4306;50.210;10.628;2023-03-01T03:14:56;16.33;;;9.33;;
8536;SDS011;4306;50.210;10.628;2023-03-01T03:17:23;16.17;;;9.00;;
8536;SDS011;4306;50.210;10.628;2023-03-01T03:19:50;15.93;;;8.63;;
8536;SDS011;4306;50.210;10.628;2023-03-01T03:22:17;15.80;;;9.37;;
8536;SDS011;4306;50.210;10.628;2023-03-01T03:24:44;15.57;;;8.70;;
8536;SDS011;4306;50.210;10.628;2023-03-01T03:27:11;14.90;;;8.70;;
8536;SDS011;4306;50.210;10.628;2023-03-01T03:29:37;15.73;;;8.93;;
8536;SDS011;4306;50.210;10.628;2023-03-01T03:32:06;15.80;;;9.10;;
8536;SDS011;4306;50.210;10.628;2023-03-01T03:34:32;18.23;;;9.40;;
8536;SDS011;4306;50.210;10.628;2023-03-01T03:36:59;16.60;;;8.67;;
8536;SDS011;4306;50.210;10.628;2023-03-01T03:39:26;15.40;;;9.50;;
8536;SDS011;4306;50.210;10.628;2023-03-01T03:41:53;16.57;;;8.83;;
8536;SDS011;4306;50.210;10.628;2023-03-01T03:44:21;15.60;;;9.17;;
8536;SDS011;4306;50.210;10.628;2023-03-01T03:46:47;17.10;;;9.10;;
8536;SDS011;4306;50.210;10.628;2023-03-01T03:49:16;15.43;;;8.27;;
8536;SDS011;4306;50.210;10.628;2023-03-01T03:51:44;15.93;;;8.33;;
8536;SDS011;4306;50.210;10.628;2023-03-01T03:54:12;16.23;;;8.77;;
8536;SDS011;4306;50.210;10.628;2023-03-01T03:56:38;18.57;;;8.60;;
8536;SDS011;4306;50.210;10.628;2023-03-01T03:59:05;16.83;;;9.33;;
8536;SDS011;4306;50.210;10.628;2023-03-01T04:01:32;16.10;;;9.37;;
8536;SDS011;4306;50.210;10.628;2023-03-01T04:03:59;17.17;;;8.90;;
8536;SDS011;4306;50.210;10.628;2023-03-01T04:06:30;16.97;;;9.40;;
8536;SDS011;4306;50.210;10.628;2023-03-01T04:08:57;20.17;;;9.87;;
8536;SDS011;4306;50.210;10.628;2023-03-01T04:11:25;18.47;;;10.03;;
8536;SDS011;4306;50.210;10.628;2023-03-01T04:13:52;18.43;;;9.20;;
8536;SDS011;4306;50.210;10.628;2023-03-01T04:16:20;17.43;;;9.87;;
8536;SDS011;4306;50.210;10.628;2023-03-01T04:18:47;16.97;;;9.77;;
8536;SDS011;4306;50.210;10.628;2023-03-01T04:21:14;16.37;;;9.50;;
8536;SDS011;4306;50.210;10.628;2023-03-01T04:23:42;17.87;;;9.93;;
8536;SDS011;4306;50.210;10.628;2023-03-01T04:26:09;16.97;;;8.67;;
8536;SDS011;4306;50.210;10.628;2023-03-01T04:28:37;17.33;;;10.03;;
8536;SDS011;4306;50.210;10.628;2023-03-01T04:31:08;15.27;;;8.87;;
8536;SDS011;4306;50.210;10.628;2023-03-01T04:33:39;15.90;;;8.27;;
8536;SDS011;4306;50.210;10.628;2023-03-01T04:36:07;17.00;;;9.03;;
8536;SDS011;4306;50.210;10.628;2023-03-01T04:38:35;14.83;;;8.67;;
8536;SDS011;4306;50.210;10.628;2023-03-01T04:41:04;15.87;;;9.27;;
8536;SDS011;4306;50.210;10.628;2023-03-01T04:43:31;16.37;;;8.70;;
8536;SDS011;4306;50.210;10.628;2023-03-01T04:46:02;16.60;;;10.00;;
8536;SDS011;4306;50.210;10.628;2023-03-01T04:48:29;17.67;;;10.70;;
8536;SDS011;4306;50.210;10.628;2023-03-01T04:50:57;18.67;;;10.70;;
8536;SDS011;4306;50.210;10.628;2023-03-01T04:53:25;20.57;;;10.47;;
8536;SDS011;4306;50.210;10.628;2023-03-01T04:55:53;18.33;;;10.13;;
8536;SDS011;4306;50.210;10.628;2023-03-01T04:58:22;23.53;;;11.43;;
8536;SDS011;4306;50.210;10.628;2023-03-01T05:00:49;18.00;;;10.33;;
8536;SDS011;4306;50.210;10.628;2023-03-01T05:03:15;19.30;;;10.90;;
8536;SDS011;4306;50.210;10.628;2023-03-01T05:05:43;24.80;;;11.53;;
8536;SDS011;4306;50.210;10.628;2023-03-01T05:08:12;21.93;;;10.43;;
8536;SDS011;4306;50.210;10.628;2023-03-01T05:10:43;18.93;;;10.80;;
8536;SDS011;4306;50.210;10.628;2023-03-01T05:13:12;17.70;;;9.90;;
8536;SDS011;4306;50.210;10.628;2023-03-01T05:15:41;19.37;;;11.20;;
8536;SDS011;4306;50.210;10.628;2023-03-01T05:18:08;19.53;;;10.73;;
8536;SDS011;4306;50.210;10.628;2023-03-01T05:20:36;16.27;;;9.73;;
8536;SDS011;4306;50.210;10.628;2023-03-01T05:23:03;17.80;;;10.27;;
8536;SDS011;4306;50.210;10.628;2023-03-01T05:25:31;18.47;;;10.50;;
8536;SDS011;4306;50.210;10.628;2023-03-01T05:28:00;16.30;;;9.70;;
8536;SDS011;4306;50.210;10.628;2023-03-01T05:30:29;21.00;;;11.50;;
8536;SDS011;4306;50.210;10.628;2023-03-01T05:32:59;21.90;;;11.27;;
8536;SDS011;4306;50.210;10.628;2023-03-01T05:35:26;18.43;;;10.13;;
8536;SDS011;4306;50.210;10.628;2023-03-01T05:37:54;18.27;;;10.23;;
8536;SDS011;4306;50.210;10.628;2023-03-01T05:40:22;21.13;;;11.00;;
8536;SDS011;4306;50.210;10.628;2023-03-01T05:42:51;22.27;;;9.97;;
8536;SDS011;4306;50.210;10.628;2023-03-01T05:45:19;18.30;;;10.67;;
8536;SDS011;4306;50.210;10.628;2023-03-01T05:47:47;22.63;;;11.57;;
8536;SDS011;4306;50.210;10.628;2023-03-01T05:50:17;22.23;;;12.03;;
8536;SDS011;4306;50.210;10.628;2023-03-01T05:52:46;17.47;;;10.80;;
8536;SDS011;4306;50.210;10.628;2023-03-01T05:55:13;21.63;;;11.23;;
8536;SDS011;4306;50.210;10.628;2023-03-01T05:57:41;20.73;;;11.43;;
8536;SDS011;4306;50.210;10.628;2023-03-01T06:00:08;19.90;;;11.33;;
8536;SDS011;4306;50.210;10.628;2023-03-01T06:02:36;22.03;;;11.10;;
8536;SDS011;4306;50.210;10.628;2023-03-01T06:05:04;19.03;;;10.50;;
8536;SDS011;4306;50.210;10.628;2023-03-01T06:07:32;22.10;;;10.67;;
8536;SDS011;4306;50.210;10.628;2023-03-01T06:10:00;21.10;;;11.43;;
8536;SDS011;4306;50.210;10.628;2023-03-01T06:12:29;19.90;;;11.40;;
8536;SDS011;4306;50.210;10.628;2023-03-01T06:14:56;21.00;;;10.77;;
8536;SDS011;4306;50.210;10.628;2023-03-01T06:17:23;19.83;;;11.57;;
8536;SDS011;4306;50.210;10.628;2023-03-01T06:19:50;21.77;;;11.70;;
8536;SDS011;4306;50.210;10.628;2023-03-01T06:22:17;20.83;;;12.20;;
8536;SDS011;4306;50.210;10.628;2023-03-01T06:24:45;23.10;;;12.30;;
8536;SDS011;4306;50.210;10.628;2023-03-01T06:27:12;27.87;;;14.17;;
8536;SDS011;4306;50.210;10.628;2023-03-01T06:29:39;26.07;;;13.70;;
8536;SDS011;4306;50.210;10.628;2023-03-01T06:32:06;21.67;;;12.77;;
8536;SDS011;4306;50.210;10.628;2023-03-01T06:34:33;21.40;;;12.23;;
8536;SDS011;4306;50.210;10.628;2023-03-01T06:37:00;25.17;;;12.57;;
8536;SDS011;4306;50.210;10.628;2023-03-01T06:39:30;23.73;;;13.63;;
8536;SDS011;4306;50.210;10.628;2023-03-01T06:41:58;25.47;;;13.80;;
8536;SDS011;4306;50.210;10.628;2023-03-01T06:44:25;25.13;;;14.50;;
8536;SDS011;4306;50.210;10.628;2023-03-01T06:46:53;23.90;;;13.80;;
8536;SDS011;4306;50.210;10.628;2023-03-01T06:49:20;27.53;;;13.70;;
8536;SDS011;4306;50.210;10.628;2023-03-01T06:51:47;25.63;;;13.77;;
8536;SDS011;4306;50.210;10.628;2023-03-01T06:54:14;27.10;;;15.13;;
8536;SDS011;4306;50.210;10.628;2023-03-01T06:56:42;30.97;;;16.70;;
8536;SDS011;4306;50.210;10.628;2023-03-01T06:59:13;44.20;;;24.77;;
8536;SDS011;4306;50.210;10.628;2023-03-01T07:01:40;41.63;;;22.03;;
8536;SDS011;4306;50.210;10.628;2023-03-01T07:04:07;37.43;;;20.90;;
8536;SDS011;4306;50.210;10.628;2023-03-01T07:06:34;36.90;;;19.80;;
8536;SDS011;4306;50.210;10.628;2023-03-01T07:09:01;34.73;;;18.57;;
8536;SDS011;4306;50.210;10.628;2023-03-01T07:11:28;37.47;;;19.10;;
8536;SDS011;4306;50.210;10.628;2023-03-01T07:13:54;31.37;;;18.60;;
8536;SDS011;4306;50.210;10.628;2023-03-01T07:16:23;29.33;;;18.17;;
8536;SDS011;4306;50.210;10.628;2023-03-01T07:18:49;30.67;;;17.10;;
8536;SDS011;4306;50.210;10.628;2023-03-01T07:21:16;21.87;;;12.20;;
8536;SDS011;4306;50.210;10.628;2023-03-01T07:23:43;23.00;;;12.13;;
8536;SDS011;4306;50.210;10.628;2023-03-01T07:26:13;20.83;;;11.33;;
8536;SDS011;4306;50.210;10.628;2023-03-01T07:28:39;26.73;;;14.73;;
8536;SDS011;4306;50.210;10.628;2023-03-01T07:31:06;24.23;;;14.50;;
8536;SDS011;4306;50.210;10.628;2023-03-01T07:33:34;23.37;;;13.13;;
8536;SDS011;4306;50.210;10.628;2023-03-01T07:36:02;21.00;;;12.37;;
8536;SDS011;4306;50.210;10.628;2023-03-01T07:38:31;22.73;;;12.50;;
8536;SDS011;4306;50.210;10.628;2023-03-01T07:40:58;21.47;;;12.10;;
8536;SDS011;4306;50.210;10.628;2023-03-01T07:43:25;21.47;;;12.43;;
8536;SDS011;4306;50.210;10.628;2023-03-01T07:45:52;21.13;;;11.77;;
8536;SDS011;4306;50.210;10.628;2023-03-01T07:48:20;20.00;;;10.63;;
8536;SDS011;4306;50.210;10.628;2023-03-01T07:50:48;20.63;;;11.47;;
8536;SDS011;4306;50.210;10.628;2023-03-01T07:53:15;19.50;;;11.90;;
8536;SDS011;4306;50.210;10.628;2023-03-01T07:55:42;20.37;;;11.10;;
8536;SDS011;4306;50.210;10.628;2023-03-01T07:58:09;20.83;;;11.13;;
8536;SDS011;4306;50.210;10.628;2023-03-01T08:00:36;25.00;;;10.93;;
8536;SDS011;4306;50.210;10.628;2023-03-01T08:03:03;18.60;;;11.00;;
8536;SDS011;4306;50.210;10.628;2023-03-01T08:05:30;18.13;;;11.27;;
8536;SDS011;4306;50.210;10.628;2023-03-01T08:07:59;19.47;;;11.73;;
8536;SDS011;4306;50.210;10.628;2023-03-01T08:10:27;16.70;;;9.83;;
8536;SDS011;4306;50.210;10.628;2023-03-01T08:12:54;18.27;;;10.47;;
8536;SDS011;4306;50.210;10.628;2023-03-01T08:15:21;21.07;;;11.27;;
8536;SDS011;4306;50.210;10.628;2023-03-01T08:17:48;21.53;;;11.97;;
8536;SDS011;4306;50.210;10.628;2023-03-01T08:20:16;23.67;;;13.50;;
8536;SDS011;4306;50.210;10.628;2023-03-01T08:22:43;21.33;;;12.37;;
8536;SDS011;4306;50.210;10.628;2023-03-01T08:25:12;19.00;;;11.13;;
8536;SDS011;4306;50.210;10.628;2023-03-01T08:27:41;17.50;;;10.20;;
8536;SDS011;4306;50.210;10.628;2023-03-01T08:30:09;17.77;;;11.07;;
8536;SDS011;4306;50.210;10.628;2023-03-01T08:32:37;20.03;;;11.23;;
8536;SDS011;4306;50.210;10.628;2023-03-01T08:35:05;19.30;;;11.53;;
8536;SDS011;4306;50.210;10.628;2023-03-01T08:37:33;21.03;;;11.87;;
8536;SDS011;4306;50.210;10.628;2023-03-01T08:40:00;21.13;;;12.30;;
8536;SDS011;4306;50.210;10.628;2023-03-01T08:42:30;19.53;;;12.63;;
8536;SDS011;4306;50.210;10.628;2023-03-01T08:44:58;21.17;;;11.33;;
8536;SDS011;4306;50.210;10.628;2023-03-01T08:47:25;19.13;;;12.57;;
8536;SDS011;4306;50.210;10.628;2023-03-01T08:49:52;19.33;;;11.27;;
8536;SDS011;4306;50.210;10.628;2023-03-01T08:52:19;20.40;;;11.60;;
8536;SDS011;4306;50.210;10.628;2023-03-01T08:54:47;18.47;;;10.40;;
8536;SDS011;4306;50.210;10.628;2023-03-01T08:57:15;20.00;;;11.80;;
8536;SDS011;4306;50.210;10.628;2023-03-01T08:59:43;15.80;;;10.83;;
8536;SDS011;4306;50.210;10.628;2023-03-01T09:02:11;18.43;;;10.47;;
8536;SDS011;4306;50.210;10.628;2023-03-01T09:04:39;18.40;;;10.73;;
8536;SDS011;4306;50.210;10.628;2023-03-01T09:07:06;18.10;;;11.43;;
8536;SDS011;4306;50.210;10.628;2023-03-01T09:09:34;17.27;;;10.43;;
8536;SDS011;4306;50.210;10.628;2023-03-01T09:12:02;18.53;;;10.10;;
8536;SDS011;4306;50.210;10.628;2023-03-01T09:14:29;18.25;;;10.85;;
8536;SDS011;4306;50.210;10.628;2023-03-01T09:16:58;17.00;;;10.07;;
8536;SDS011;4306;50.210;10.628;2023-03-01T09:19:28;18.80;;;10.83;;
8536;SDS011;4306;50.210;10.628;2023-03-01T09:21:55;19.67;;;10.30;;
8536;SDS011;4306;50.210;10.628;2023-03-01T09:24:23;19.27;;;10.80;;
8536;SDS011;4306;50.210;10.628;2023-03-01T09:26:52;19.80;;;10.73;;
8536;SDS011;4306;50.210;10.628;2023-03-01T09:29:20;17.47;;;10.63;;
8536;SDS011;4306;50.210;10.628;2023-03-01T09:31:47;17.55;;;10.95;;
8536;SDS011;4306;50.210;10.628;2023-03-01T09:34:16;18.73;;;10.80;;
8536;SDS011;4306;50.210;10.628;2023-03-01T09:36:48;18.88;;;11.13;;
8536;SDS011;4306;50.210;10.628;2023-03-01T09:39:16;18.98;;;11.23;;
8536;SDS011;4306;50.210;10.628;2023-03-01T09:41:49;16.27;;;10.40;;
8536;SDS011;4306;50.210;10.628;2023-03-01T09:44:23;22.00;;;11.63;;
8536;SDS011;4306;50.210;10.628;2023-03-01T09:47:02;20.80;;;10.93;;
8536;SDS011;4306;50.210;10.628;2023-03-01T09:49:31;20.90;;;11.10;;
8536;SDS011;4306;50.210;10.628;2023-03-01T09:52:00;18.33;;;11.23;;
8536;SDS011;4306;50.210;10.628;2023-03-01T09:54:34;17.80;;;10.93;;
8536;SDS011;4306;50.210;10.628;2023-03-01T09:57:05;17.55;;;10.85;;
8536;SDS011;4306;50.210;10.628;2023-03-01T09:59:45;19.98;;;10.93;;
8536;SDS011;4306;50.210;10.628;2023-03-01T10:02:23;18.42;;;11.18;;
8536;SDS011;4306;50.210;10.628;2023-03-01T10:04:59;20.20;;;10.77;;
8536;SDS011;4306;50.210;10.628;2023-03-01T10:07:37;19.40;;;11.43;;
8536;SDS011;4306;50.210;10.628;2023-03-01T10:10:23;19.10;;;11.47;;
8536;SDS011;4306;50.210;10.628;2023-03-01T10:12:53;17.23;;;10.00;;
8536;SDS011;4306;50.210;10.628;2023-03-01T10:15:34;17.27;;;11.63;;
8536;SDS011;4306;50.210;10.628;2023-03-01T10:18:06;17.80;;;10.30;;
8536;SDS011;4306;50.210;10.628;2023-03-01T10:20:43;17.63;;;9.90;;
8536;SDS011;4306;50.210;10.628;2023-03-01T10:23:14;18.80;;;11.97;;
8536;SDS011;4306;50.210;10.628;2023-03-01T10:25:47;19.17;;;10.80;;
8536;SDS011;4306;50.210;10.628;2023-03-01T10:28:25;16.88;;;10.25;;
8536;SDS011;4306;50.210;10.628;2023-03-01T10:30:56;15.40;;;10.00;;
8536;SDS011;4306;50.210;10.628;2023-03-01T10:33:24;16.77;;;10.15;;
8536;SDS011;4306;50.210;10.628;2023-03-01T10:35:54;16.80;;;10.45;;
8536;SDS011;4306;50.210;10.628;2023-03-01T10:38:21;17.55;;;10.50;;
8536;SDS011;4306;50.210;10.628;2023-03-01T10:40:52;18.40;;;10.63;;
8536;SDS011;4306;50.210;10.628;2023-03-01T10:43:22;15.07;;;9.80;;
8536;SDS011;4306;50.210;10.628;2023-03-01T10:45:49;17.60;;;9.77;;
8536;SDS011;4306;50.210;10.628;2023-03-01T10:48:17;15.32;;;9.77;;
8536;SDS011;4306;50.210;10.628;2023-03-01T10:50:49;16.20;;;8.88;;
8536;SDS011;4306;50.210;10.628;2023-03-01T10:53:23;15.17;;;9.60;;
8536;SDS011;4306;50.210;10.628;2023-03-01T10:55:57;16.50;;;10.70;;
8536;SDS011;4306;50.210;10.628;2023-03-01T10:58:26;15.63;;;9.93;;
8536;SDS011;4306;50.210;10.628;2023-03-01T11:00:55;15.35;;;9.23;;
8536;SDS011;4306;50.210;10.628;2023-03-01T11:03:23;16.45;;;10.25;;
8536;SDS011;4306;50.210;10.628;2023-03-01T11:05:56;15.65;;;9.77;;
8536;SDS011;4306;50.210;10.628;2023-03-01T11:08:37;16.73;;;10.23;;
8536;SDS011;4306;50.210;10.628;2023-03-01T11:11:16;15.25;;;9.25;;
8536;SDS011;4306;50.210;10.628;2023-03-01T11:13:50;16.63;;;10.13;;
8536;SDS011;4306;50.210;10.628;2023-03-01T11:16:23;17.05;;;11.05;;
8536;SDS011;4306;50.210;10.628;2023-03-01T11:18:55;15.98;;;10.43;;
8536;SDS011;4306;50.210;10.628;2023-03-01T11:21:24;16.83;;;9.77;;
8536;SDS011;4306;50.210;10.628;2023-03-01T11:23:53;17.83;;;11.00;;
8536;SDS011;4306;50.210;10.628;2023-03-01T11:26:21;13.25;;;8.90;;
8536;SDS011;4306;50.210;10.628;2023-03-01T11:28:49;16.50;;;10.55;;
8536;SDS011;4306;50.210;10.628;2023-03-01T11:31:20;15.68;;;9.98;;
8536;SDS011;4306;50.210;10.628;2023-03-01T11:33:53;15.75;;;9.63;;
8536;SDS011;4306;50.210;10.628;2023-03-01T11:36:28;16.17;;;10.38;;
8536;SDS011;4306;50.210;10.628;2023-03-01T11:39:01;14.90;;;9.52;;
8536;SDS011;4306;50.210;10.628;2023-03-01T11:41:33;16.38;;;9.52;;
8536;SDS011;4306;50.210;10.628;2023-03-01T11:44:02;16.67;;;9.50;;
8536;SDS011;4306;50.210;10.628;2023-03-01T11:49:30;15.27;;;9.40;;
8536;SDS011;4306;50.210;10.628;2023-03-01T11:52:20;17.20;;;8.98;;
8536;SDS011;4306;50.210;10.628;2023-03-01T11:55:00;15.77;;;9.93;;
8536;SDS011;4306;50.210;10.628;2023-03-01T11:57:47;14.77;;;10.07;;
8536;SDS011;4306;50.210;10.628;2023-03-01T12:00:32;16.50;;;9.48;;
8536;SDS011;4306;50.210;10.628;2023-03-01T12:03:25;14.52;;;9.43;;
8536;SDS011;4306;50.210;10.628;2023-03-01T12:06:09;18.30;;;9.20;;
8536;SDS011;4306;50.210;10.628;2023-03-01T12:09:01;15.57;;;9.38;;
8536;SDS011;4306;50.210;10.628;2023-03-01T12:11:48;15.02;;;9.63;;
8536;SDS011;4306;50.210;10.628;2023-03-01T12:14:35;13.60;;;9.43;;
8536;SDS011;4306;50.210;10.628;2023-03-01T12:20:11;15.25;;;9.75;;
8536;SDS011;4306;50.210;10.628;2023-03-01T12:22:46;16.30;;;9.65;;
8536;SDS011;4306;50.210;10.628;2023-03-01T12:25:25;13.68;;;8.95;;
8536;SDS011;4306;50.210;10.628;2023-03-01T12:28:19;15.70;;;9.30;;
8536;SDS011;4306;50.210;10.628;2023-03-01T12:31:01;16.75;;;9.68;;
8536;SDS011;4306;50.210;10.628;2023-03-01T12:34:00;15.10;;;9.18;;
8536;SDS011;4306;50.210;10.628;2023-03-01T12:39:33;14.05;;;9.15;;
8536;SDS011;4306;50.210;10.628;2023-03-01T12:42:11;15.70;;;10.02;;
8536;SDS011;4306;50.210;10.628;2023-03-01T12:44:57;23.02;;;12.38;;
8536;SDS011;4306;50.210;10.628;2023-03-01T12:47:48;33.55;;;16.85;;
8536;SDS011;4306;50.210;10.628;2023-03-01T12:50:25;28.50;;;13.75;;
8536;SDS011;4306;50.210;10.628;2023-03-01T12:53:05;14.10;;;8.30;;
8536;SDS011;4306;50.210;10.628;2023-03-01T12:55:41;12.90;;;7.80;;
8536;SDS011;4306;50.210;10.628;2023-03-01T12:58:12;13.30;;;8.05;;
8536;SDS011;4306;50.210;10.628;2023-03-01T13:00:54;13.50;;;8.18;;
8536;SDS011;4306;50.210;10.628;2023-03-01T13:03:31;12.07;;;7.53;;
8536;SDS011;4306;50.210;10.628;2023-03-01T13:06:11;11.52;;;7.75;;
8536;SDS011;4306;50.210;10.628;2023-03-01T13:08:46;11.55;;;7.88;;
8536;SDS011;4306;50.210;10.628;2023-03-01T13:11:19;12.65;;;7.47;;
8536;SDS011;4306;50.210;10.628;2023-03-01T13:13:48;13.93;;;8.07;;
8536;SDS011;4306;50.210;10.628;2023-03-01T13:16:22;12.90;;;7.47;;
8536;SDS011;4306;50.210;10.628;2023-03-01T13:19:14;12.68;;;8.10;;
8536;SDS011;4306;50.210;10.628;2023-03-01T13:21:43;12.88;;;7.53;;
8536;SDS011;4306;50.210;10.628;2023-03-01T13:24:24;10.57;;;7.22;;
8536;SDS011;4306;50.210;10.628;2023-03-01T13:27:18;11.32;;;7.75;;
8536;SDS011;4306;50.210;10.628;2023-03-01T13:29:54;12.10;;;7.50;;
8536;SDS011;4306;50.210;10.628;2023-03-01T13:32:26;11.25;;;7.72;;
8536;SDS011;4306;50.210;10.628;2023-03-01T13:34:55;11.32;;;7.47;;
8536;SDS011;4306;50.210;10.628;2023-03-01T13:37:26;12.32;;;7.60;;
8536;SDS011;4306;50.210;10.628;2023-03-01T13:39:59;11.70;;;7.47;;
8536;SDS011;4306;50.210;10.628;2023-03-01T13:42:34;11.55;;;7.60;;
8536;SDS011;4306;50.210;10.628;2023-03-01T13:45:24;13.30;;;8.50;;
8536;SDS011;4306;50.210;10.628;2023-03-01T13:48:02;10.68;;;7.88;;
8536;SDS011;4306;50.210;10.628;2023-03-01T13:50:36;12.27;;;8.25;;
8536;SDS011;4306;50.210;10.628;2023-03-01T13:53:10;14.75;;;9.00;;
8536;SDS011;4306;50.210;10.628;2023-03-01T13:55:42;14.23;;;8.73;;
8536;SDS011;4306;50.210;10.628;2023-03-01T13:58:15;10.95;;;8.07;;
8536;SDS011;4306;50.210;10.628;2023-03-01T14:00:47;13.77;;;8.27;;
8536;SDS011;4306;50.210;10.628;2023-03-01T14:03:24;14.55;;;9.48;;
8536;SDS011;4306;50.210;10.628;2023-03-01T14:05:58;14.48;;;8.90;;
8536;SDS011;4306;50.210;10.628;2023-03-01T14:08:28;11.90;;;7.90;;
8536;SDS011;4306;50.210;10.628;2023-03-01T14:14:06;12.20;;;8.10;;
8536;SDS011;4306;50.210;10.628;2023-03-01T14:16:46;14.27;;;8.45;;
8536;SDS011;4306;50.210;10.628;2023-03-01T14:19:23;10.95;;;7.60;;
8536;SDS011;4306;50.210;10.628;2023-03-01T14:21:58;13.05;;;8.05;;
8536;SDS011;4306;50.210;10.628;2023-03-01T14:24:29;12.35;;;7.55;;
8536;SDS011;4306;50.210;10.628;2023-03-01T14:26:59;11.90;;;7.82;;
8536;SDS011;4306;50.210;10.628;2023-03-01T14:29:27;12.50;;;7.82;;
8536;SDS011;4306;50.210;10.628;2023-03-01T14:32:07;11.50;;;7.70;;
8536;SDS011;4306;50.210;10.628;2023-03-01T14:34:38;12.68;;;7.57;;
8536;SDS011;4306;50.210;10.628;2023-03-01T14:37:10;11.68;;;7.93;;
8536;SDS011;4306;50.210;10.628;2023-03-01T14:39:43;12.35;;;8.63;;
8536;SDS011;4306;50.210;10.628;2023-03-01T14:42:11;13.15;;;7.95;;
8536;SDS011;4306;50.210;10.628;2023-03-01T14:44:40;12.52;;;7.97;;
8536;SDS011;4306;50.210;10.628;2023-03-01T14:47:10;14.90;;;8.35;;
8536;SDS011;4306;50.210;10.628;2023-03-01T14:49:41;14.43;;;8.68;;
8536;SDS011;4306;50.210;10.628;2023-03-01T14:52:17;12.90;;;8.07;;
8536;SDS011;4306;50.210;10.628;2023-03-01T14:54:47;13.02;;;8.68;;
8536;SDS011;4306;50.210;10.628;2023-03-01T14:57:17;12.48;;;8.88;;
8536;SDS011;4306;50.210;10.628;2023-03-01T14:59:48;12.18;;;7.95;;
8536;SDS011;4306;50.210;10.628;2023-03-01T15:02:18;12.82;;;8.40;;
8536;SDS011;4306;50.210;10.628;2023-03-01T15:04:50;12.98;;;8.90;;
8536;SDS011;4306;50.210;10.628;2023-03-01T15:07:19;12.80;;;8.02;;
8536;SDS011;4306;50.210;10.628;2023-03-01T15:09:45;13.73;;;8.38;;
8536;SDS011;4306;50.210;10.628;2023-03-01T15:12:33;11.98;;;8.00;;
8536;SDS011;4306;50.210;10.628;2023-03-01T15:18:03;13.70;;;8.52;;
8536;SDS011;4306;50.210;10.628;2023-03-01T15:20:34;15.65;;;9.23;;